Details From KDCA - Washington National
To TFFR - Pointe A Pitre Le Raizet
Flight Number -
Tags Generated
Created
Modified
Stats Distance 1,582 nm / 2,929 km
Max Altitude 0 ft / 0 m
Waypoints 4
Social Downloads 1
Likes 0
Share VATSIM

Download

Looking for another format? Having issues loading an existing format? Contact us
Advertisement - Login to hide

Notes

Generated

Route

KDCA KW33A PPR41 TFFR

ID Type Via Altitude Latitude Longitude Leg Dist Tot Dist Heading (true) Name
O KDCA APT - 0 ft / 0 m 38.84227˚ -77.04076˚ - 0 nm - -
KW33A FIX - 0 ft / 0 m 35.50000˚ -74.00000˚ 247 nm 247 nm 143° / 145° -
PPR41 FIX - 0 ft / 0 m 16.32739˚ -61.57016˚ 1330 nm 1577 nm 147° / 152° -
O TFFR APT - 0 ft / 0 m 16.26830˚ -61.54794˚ 3 nm 1581 nm 160° / 160° -

Altitude Profile

Advertisement - Login to hide

Weather


0- 5 10 15 20 25 30 35+ Temperature / ° C

Clouds and Precipitation
Forecast for 2017-12-17 18:00 UTC. Updated an hour ago

Ground ~20,000 ft ~40,000 ft Winds

KDCA

Details ICAO KDCA (DCA)
Name Washington National
Region United States
Timezone America/New_York (UTC-5.0)
Stats Elevation 15 ft / 5 m (AMSL)
Location 38.852054° -77.037695°
Runways 3
Magnetic Variation 10.822° W

METAR

KDCA 171552Z 00000KT 10SM BKN120 BKN250 07/M01 A3028 RMK AO2 SLP252 T00671011

Decode

TAF

KDCA 171446Z 1715/1818 18003KT P6SM BKN200 FM171900 14004KT P6SM BKN100 FM180500 00000KT P6SM BKN060 FM181200 VRB04KT P6SM SCT060 BKN250

Decode

Departure Runways

ID Width Length Bearing (true) Bearing (mag) Surface Threshold Offset Overrun Length
01 151 ft / 46 m 6,882 ft / 2,098 m 355.51° 6.33° Asphalt 0 ft / 0 m 200 ft / 61 m
04 151 ft / 46 m 4,917 ft / 1,499 m 25.47° 36.29° Asphalt 0 ft / 0 m 0 ft / 0 m
15 151 ft / 46 m 5,206 ft / 1,587 m 142.76° 153.58° Asphalt 0 ft / 0 m 174 ft / 53 m
19 151 ft / 46 m 6,882 ft / 2,098 m 175.51° 186.33° Asphalt 0 ft / 0 m 200 ft / 61 m
22 151 ft / 46 m 4,917 ft / 1,499 m 205.47° 216.29° Asphalt 0 ft / 0 m 0 ft / 0 m
33 151 ft / 46 m 5,206 ft / 1,587 m 322.76° 333.58° Asphalt 0 ft / 0 m 98 ft / 30 m

TFFR

Details ICAO TFFR (PTP)
Name Pointe a Pitre Le Raizet
Region France (Guadeloupe, Martinique, Saint Barthélemy, Saint Martin)
Timezone America/Guadeloupe (UTC-4.0)
Stats Elevation 35 ft / 11 m (AMSL)
Location 16.265306° -61.531808°
Runways 1
Magnetic Variation 14.857° W

METAR

TFFR 171600Z AUTO 09010KT 070V130 9999 SCT032 BKN039 BKN047 29/21 Q1016 NOSIG

Decode

TAF

Not found

Destination Runways

ID Width Length Bearing (true) Bearing (mag) Surface Threshold Offset Overrun Length
11 148 ft / 45 m 11,513 ft / 3,509 m 100.94° 115.80° Asphalt 0 ft / 0 m 0 ft / 0 m
29 148 ft / 45 m 11,513 ft / 3,509 m 280.95° 295.81° Asphalt 0 ft / 0 m 0 ft / 0 m

Approach Navaids

Runway Type Ident Frequency Range Bearing (true) Bearing (mag) Slope Elevation
11 Localiser PP 110.30 MHz 18 nm / 33 km 100.95° 115.81° - 36 ft / 11 m (AMSL)
11 Glidescope PP 110.30 MHz 10 nm / 19 km 100.94° 115.80° 3.20° 36 ft / 11 m (AMSL)